HOURLY OBS INDEX

097

West Coast Mountain Region

CAPE SORELL

Site: 097000
Alt: 19.3m
34km WSW of QUEENSTOWN


  Time     Wind        Temp  DP   Baro     Rain since   Rain past  Vis(m), Cloud(base in m), Weather
  local        km/h                         9am  last   hr   10m    
Wed 06:00    E 17/ 19  13.5 11.2  1012.4    0.0   0.0   0.0   0.0   ----- 
Wed 06:30    E 17/ 20  13.9 11.6  1011.9    0.0   0.0   0.0   0.0   ----- 
Wed 07:00  ESE 11/ 17  14.8 12.3  1011.6    0.0   0.0   0.0   0.0   ----- 
Wed 07:30    E 11/ 15  15.6 12.7  1011.5    0.0   0.0   0.0   0.0   ----- 
Wed 08:00   NE  6/  7  15.9 12.6  1011.5    0.0   0.0   0.0   0.0   ----- 
Wed 08:30  ENE  2/  4  17.5 13.8  1011.5    0.0   0.0   0.0   0.0   ----- 
Wed 09:00   NE  6/  9  18.5 12.9  1010.8    0.0   0.0   0.0   0.0   ----- 
Wed 09:30   NE  7/ 11  20.1 13.3  1010.6    0.0   0.0   0.0   0.0   ----- 
Wed 10:00   NE  9/ 11  19.9 11.7  1009.8    0.0   0.0   0.0   0.0   ----- 
Wed 10:30    N  6/  9  22.1 12.1  1009.4    0.0   0.0   0.0   0.0   ----- 
Wed 11:00   NW  6/  9  22.9  9.0  1008.9    0.0   0.0   0.0   0.0   ----- 

LOW ROCKY POINT

Site: 097080
Alt: 34.0m
51km WSW of STRATHGORDON VILLAGE


  Time     Wind        Temp  DP   Baro     Rain since   Rain past  Vis(m), Cloud(base in m), Weather
  local        km/h                         9am  last   hr   10m    
Wed 06:00   NE 20/ 22  11.6  5.7  1013.3    0.0   0.0   0.0   0.0   ----- 
Wed 06:30   NE 20/ 22  13.1  6.7  1012.8    0.0   0.0   0.0   0.0   ----- 
Wed 07:00   NE 15/ 19  14.8  8.7  1012.4    0.0   0.0   0.0   0.0   ----- 
Wed 07:30    E  9/ 13  15.6  9.7  1011.9    0.0   0.0   0.0   0.0   ----- 
Wed 08:00  ESE  6/  7  17.8 11.1  1011.5    0.0   0.0   0.0   0.0   ----- 
Wed 08:30  ESE  9/ 11  18.8 10.6  1011.4    0.0   0.0   0.0   0.0   ----- 
Wed 09:00    S  9/ 11  18.4  9.7  1011.2    0.0   0.0   0.0   0.0   ----- 
Wed 09:30    E 11/ 19  20.7 12.7  1010.7    0.0   0.0   0.0   0.0   ----- 
Wed 10:00  SSW 11/ 13  19.6 12.4  1010.3    0.0   0.0   0.0   0.0   ----- 
Wed 10:30  WSW 15/ 17  18.8 12.1  1010.1    0.0   0.0   0.0   0.0   ----- 
Wed 11:00  SSW 17/ 20  19.5 10.0  1009.6    0.0   0.0   0.0   0.0   ----- 

MOUNT READ

Site: 097085
Alt: 1119.5m
26km N of QUEENSTOWN


  Time     Wind        Temp  DP   Baro     Rain since   Rain past  Vis(m), Cloud(base in m), Weather
  local        km/h                         9am  last   hr   10m    
Wed 06:00  NNE 39/ 50   9.5  2.1  1014.5    0.0   0.0   0.0   0.0   ----- 
Wed 06:30  NNE 41/ 52  10.2  2.3  1014.2    0.0   0.0   0.0   0.0   ----- 
Wed 06:54   NE 35/ 54  11.3  0.7  1014.0    0.0   0.0  ----   0.0   ----- 
Wed 07:00  NNE 35/ 50  11.3  1.3  1014.1    0.0   0.0   0.0   0.0   ----- 
Wed 07:30  NNE 39/ 54  10.9  3.5  1013.9    0.0   0.0   0.0   0.0   ----- 
Wed 08:00  NNE 39/ 48  10.8  3.8  1014.0    0.0   0.0   0.0   0.0   ----- 
Wed 08:30  NNE 33/ 43  11.5  4.9  1014.1    0.0   0.0   0.0   0.0   ----- 
Wed 09:00  NNE 43/ 56  12.1  4.1  1013.8    0.0   0.0   0.0   0.0   ----- 
Wed 09:11  NNE 45/ 65  12.6  1.3  1013.8    0.0   0.0  ----   0.0   ----- 
Wed 09:30  NNE 46/ 61  12.9  3.0  1013.7    0.0   0.0   0.0   0.0   ----- 
Wed 09:50  NNE 43/ 63  14.1  2.0  1013.4    0.0   0.0  ----   0.0   ----- 
Wed 10:00  NNE 46/ 63  14.1  2.0  1013.1    0.0   0.0   0.0   0.0   ----- 
Wed 10:30  NNE 43/ 58  14.9  1.4  1013.0    0.0   0.0   0.0   0.0   ----- 
Wed 11:00  NNE 43/ 59  15.5  1.3  1012.7    0.0   0.0   0.0   0.0   ----- 

SCOTTS PEAK DAM

Site: 097083
Alt: 408.0m
36km SSE of STRATHGORDON VILLAGE


  Time     Wind        Temp  DP   Baro     Rain since   Rain past  Vis(m), Cloud(base in m), Weather
  local        km/h                         9am  last   hr   10m    
Wed 06:00  SSE 13/ 15   9.8  9.3  ------    0.0   0.0   0.0   0.0   ----- 
Wed 06:30   SE 11/ 15  10.4  9.3  ------    0.0   0.0   0.0   0.0   ----- 
Wed 07:00  SSE  9/ 13  11.4  9.3  ------    0.0   0.0   0.0   0.0   ----- 
Wed 07:30    S  9/ 11  11.8  9.0  ------    0.0   0.0   0.0   0.0   ----- 
Wed 08:00   SE  9/ 13  13.2  9.5  ------    0.0   0.0   0.0   0.0   ----- 
Wed 08:30  SSE  6/ 11  14.5  9.7  ------    0.0   0.0   0.0   0.0   ----- 
Wed 09:00   SW  6/  9  16.7 10.5  ------    0.0   0.0   0.0   0.0   ----- 
Wed 09:30  NNE  9/ 13  18.0  9.4  ------    0.0   0.0   0.0   0.0   ----- 
Wed 10:00    N 15/ 24  20.9 11.5  ------    0.0   0.0   0.0   0.0   ----- 
Wed 10:30    N 17/ 24  23.2 12.8  ------    0.0   0.0   0.0   0.0   ----- 
Wed 11:00    N 19/ 32  24.5 10.0  ------    0.0   0.0   0.0   0.0   ----- 

STRAHAN AERODROME

Site: 097072
Alt: 21.0m
23km WSW of QUEENSTOWN


  Time     Wind        Temp  DP   Baro     Rain since   Rain past  Vis(m), Cloud(base in m), Weather
  local        km/h                         9am  last   hr   10m    
Wed 06:00  ENE  9/  9   9.8  8.7  1013.0    0.0   0.0   0.0   0.0   10000 
Wed 06:30  ENE  6/  9  11.2  9.8  1012.4    0.0   0.0   0.0   0.0   10000 
Wed 07:00    E  6/  9  13.4 11.1  1011.9    0.0   0.0   0.0   0.0   10000 
Wed 07:30    S  4/  7  15.3 12.4  1011.8    0.0   0.0   0.0   0.0   10000 
Wed 08:00    W  2/  6  16.1 11.5  1011.8    0.0   0.0   0.0   0.0   10000 
Wed 08:30  WNW  6/  9  18.1 11.0  1011.7    0.0   0.0   0.0   0.0   10000 
Wed 09:00   SE 13/ 17  19.1 13.1  1011.2    0.0   0.0   0.0   0.0   10000 
Wed 09:30  ESE  7/ 13  20.4 12.9  1010.8    0.0   0.0   0.0   0.0   10000 
Wed 10:00  SSE  9/ 15  22.0 12.8  1010.0    0.0   0.0   0.0   0.0   10000 
Wed 10:30    S 11/ 17  22.7 12.6  1009.5    0.0   0.0   0.0   0.0   10000 
Wed 11:00   SE 17/ 20  23.8 13.1  1009.0    0.0   0.0   0.0   0.0   10000 

WARRA

Site: 097024
Alt: 495.0m
28km W of HUONVILLE


  Time     Wind        Temp  DP   Baro     Rain since   Rain past  Vis(m), Cloud(base in m), Weather
  local        km/h                         9am  last   hr   10m    
Wed 06:00    C  0/  0   7.4  7.4  ------    0.2   0.0   0.0   0.0   ----- 
Wed 06:30  WNW  2/  7   9.2  9.2  ------    0.2   0.0   0.0   0.0   ----- 
Wed 07:00    N  7/  9  11.8 11.8  ------    0.2   0.0   0.0   0.0   ----- 
Wed 07:30  NNE  7/  9  13.4 13.4  ------    0.2   0.0   0.0   0.0   ----- 
Wed 08:00    N  9/ 13  14.2 11.7  ------    0.2   0.0   0.0   0.0   ----- 
Wed 08:30  NNE  9/ 13  15.2 11.2  ------    0.2   0.0   0.0   0.0   ----- 
Wed 09:00  ENE  9/ 13  16.5 11.6  ------    0.2   0.0   0.0   0.0   ----- 
Wed 09:30   NE  9/ 15  17.6 11.4  ------    0.0   0.0   0.0   0.0   ----- 
Wed 10:00   NE  9/ 15  18.7 12.2  ------    0.0   0.0   0.0   0.0   ----- 
Wed 10:30   NE  9/ 15  19.9 12.4  ------    0.0   0.0   0.0   0.0   ----- 
Wed 11:00   NE 15/ 26  20.8  9.4  ------    0.0   0.0   0.0   0.0   -----